Wind From: 11-12-2017 04:25 Until: 16:00 warning for: Wind Level: Orange info button

Power and phone distribution networks may be disrupted for relatively long periods., Roofs and chimneys can be damaged. , Tree branches may break. , Vehicles can be deported. , Traffic may be disrupted, particularly on secondary roads in forest areas. Limit your trips. , Limit your speed in highway driving, especially if you drive a vehicle or hitch sensitive to wind. , Do not go for walks in forests or along the coast., In town, be vigilant against possible falling objects., Do not work on roofs and do not touch any electrical line fallen on the ground., Store or secure sensitive objects to wind or likely to be damaged., Always install power generators outside buildings. 


Meteo18 Weather Cam more information Meteo18 Weather Cam


Thunder radar more information blitzortung!


Rain radar more information rain snow radar


Visit our other weather sites:

Template documentation
and downloads

And another site



Weather Underground History page Text

Daily Summary for November 27, 2017 Units:  Both    English   Metric
« Previous Day
Next Day »
Daily Weekly Monthly Yearly Custom
  High: Low: Average:
Temperature: 47.1 °F /  8.4 °C 33.3 °F /  0.7 °C 40.6 °F /  4.8 °C
Dew Point: 40.6 °F /  4.8 °C 31.8 °F /  -0.1 °C 37 °F /  2.8 °C
Humidity: 97 % 76 % 88 %
Wind Speed: 13 mph /  20.9 km/h - 4.6 mph /  7.4 km/h
Wind Gust: 17 mph /  27.4 km/h - -
Wind:- - SW
Pressure: 30.4 in /  1031.0 hPa 30.1 in /  1018.2 hPa -
Precipitation: 0 in /  0.0 mm    
Historical Graphs
 
 
Tabular Data for November 27, 2017
Time Temperature Dew Point Pressure Wind Wind Speed Wind Gust Humidity Rainfall Rate (Hourly)
00:02 34.3 °F /  1.3 °C 33.1 °F /  0.6 °C 30.4 in /  1030.7 hPa WSW 1 mph /  1.6 km/h 3 mph /  4.8 km/h 95 % 0 in /  0.0 mm
00:07 34.9 °F /  1.6 °C 33.8 °F /  1.0 °C 30.4 in /  1030.7 hPa WSW 1 mph /  1.6 km/h 3 mph /  4.8 km/h 96 % 0 in /  0.0 mm
00:12 35.1 °F /  1.7 °C 33.8 °F /  1.0 °C 30.4 in /  1030.7 hPa WSW 1 mph /  1.6 km/h 3 mph /  4.8 km/h 95 % 0 in /  0.0 mm
00:17 35.1 °F /  1.7 °C 33.8 °F /  1.0 °C 30.4 in /  1030.7 hPa WSW 1 mph /  1.6 km/h 3 mph /  4.8 km/h 95 % 0 in /  0.0 mm
00:22 35.1 °F /  1.7 °C 33.8 °F /  1.0 °C 30.4 in /  1030.7 hPa Calm   3 mph /  4.8 km/h 95 % 0 in /  0.0 mm
00:27 34.9 °F /  1.6 °C 33.3 °F /  0.7 °C 30.4 in /  1031.0 hPa Calm   3 mph /  4.8 km/h 94 % 0 in /  0.0 mm
00:37 33.6 °F /  0.9 °C 32 °F /  0.0 °C 30.4 in /  1030.7 hPa Calm   2 mph /  3.2 km/h 94 % 0 in /  0.0 mm
00:42 33.6 °F /  0.9 °C 32 °F /  0.0 °C 30.4 in /  1030.7 hPa SSW 1 mph /  1.6 km/h 3 mph /  4.8 km/h 94 % 0 in /  0.0 mm
00:47 33.4 °F /  0.8 °C 31.8 °F /  -0.1 °C 30.4 in /  1031.0 hPa Calm   3 mph /  4.8 km/h 94 % 0 in /  0.0 mm
00:52 33.4 °F /  0.8 °C 32.2 °F /  0.1 °C 30.4 in /  1031.0 hPa Calm   3 mph /  4.8 km/h 95 % 0 in /  0.0 mm
00:57 33.3 °F /  0.7 °C 32 °F /  0.0 °C 30.4 in /  1031.0 hPa SSW 1 mph /  1.6 km/h 1 mph /  1.6 km/h 95 % 0 in /  0.0 mm
01:02 33.3 °F /  0.7 °C 32 °F /  0.0 °C 30.4 in /  1031.0 hPa Calm   1 mph /  1.6 km/h 95 % 0 in /  0.0 mm
01:12 33.3 °F /  0.7 °C 32 °F /  0.0 °C 30.4 in /  1030.7 hPa SSW 1 mph /  1.6 km/h 2 mph /  3.2 km/h 95 % 0 in /  0.0 mm
01:17 33.4 °F /  0.8 °C 32.2 °F /  0.1 °C 30.4 in /  1030.7 hPa Calm   1 mph /  1.6 km/h 95 % 0 in /  0.0 mm
01:22 33.4 °F /  0.8 °C 32.2 °F /  0.1 °C 30.4 in /  1030.7 hPa SE 1 mph /  1.6 km/h 1 mph /  1.6 km/h 95 % 0 in /  0.0 mm
01:27 33.6 °F /  0.9 °C 32.5 °F /  0.3 °C 30.4 in /  1031.0 hPa Calm   2 mph /  3.2 km/h 96 % 0 in /  0.0 mm
01:37 33.4 °F /  0.8 °C 32.2 °F /  0.1 °C 30.4 in /  1031.0 hPa SE 1 mph /  1.6 km/h 3 mph /  4.8 km/h 95 % 0 in /  0.0 mm
01:42 33.4 °F /  0.8 °C 32.2 °F /  0.1 °C 30.4 in /  1031.0 hPa SE 1 mph /  1.6 km/h 3 mph /  4.8 km/h 95 % 0 in /  0.0 mm
01:47 33.4 °F /  0.8 °C 32.4 °F /  0.2 °C 30.4 in /  1030.7 hPa Calm   2 mph /  3.2 km/h 96 % 0 in /  0.0 mm
01:52 33.4 °F /  0.8 °C 32.2 °F /  0.1 °C 30.4 in /  1030.7 hPa Calm   2 mph /  3.2 km/h 95 % 0 in /  0.0 mm
01:57 33.4 °F /  0.8 °C 32.2 °F /  0.1 °C 30.4 in /  1030.7 hPa Calm   2 mph /  3.2 km/h 95 % 0 in /  0.0 mm
02:02 33.4 °F /  0.8 °C 32.4 °F /  0.2 °C 30.4 in /  1030.7 hPa Calm   2 mph /  3.2 km/h 96 % 0 in /  0.0 mm
02:12 33.6 °F /  0.9 °C 32.5 °F /  0.3 °C 30.4 in /  1030.7 hPa Calm   1 mph /  1.6 km/h 96 % 0 in /  0.0 mm
02:17 33.4 °F /  0.8 °C 32.2 °F /  0.1 °C 30.4 in /  1030.7 hPa SE 1 mph /  1.6 km/h 1 mph /  1.6 km/h 95 % 0 in /  0.0 mm
02:22 33.4 °F /  0.8 °C 32.4 °F /  0.2 °C 30.4 in /  1030.7 hPa SSE 1 mph /  1.6 km/h 1 mph /  1.6 km/h 96 % 0 in /  0.0 mm
02:32 33.4 °F /  0.8 °C 32.4 °F /  0.2 °C 30.4 in /  1030.7 hPa SE 1 mph /  1.6 km/h 2 mph /  3.2 km/h 96 % 0 in /  0.0 mm
02:42 33.6 °F /  0.9 °C 32.5 °F /  0.3 °C 30.4 in /  1030.7 hPa ESE 2 mph /  3.2 km/h 2 mph /  3.2 km/h 96 % 0 in /  0.0 mm
02:47 33.6 °F /  0.9 °C 32.5 °F /  0.3 °C 30.4 in /  1031.0 hPa SSE 1 mph /  1.6 km/h 3 mph /  4.8 km/h 96 % 0 in /  0.0 mm
02:52 33.6 °F /  0.9 °C 32.5 °F /  0.3 °C 30.4 in /  1030.7 hPa Calm   3 mph /  4.8 km/h 96 % 0 in /  0.0 mm
02:57 33.6 °F /  0.9 °C 32.5 °F /  0.3 °C 30.4 in /  1030.7 hPa Calm   3 mph /  4.8 km/h 96 % 0 in /  0.0 mm
03:02 33.8 °F /  1.0 °C 32.7 °F /  0.4 °C 30.4 in /  1030.7 hPa SSE 1 mph /  1.6 km/h 3 mph /  4.8 km/h 96 % 0 in /  0.0 mm
03:07 34 °F /  1.1 °C 32.9 °F /  0.5 °C 30.4 in /  1030.7 hPa SSE 1 mph /  1.6 km/h 3 mph /  4.8 km/h 96 % 0 in /  0.0 mm
03:12 34 °F /  1.1 °C 32.9 °F /  0.5 °C 30.4 in /  1030.7 hPa SSW 1 mph /  1.6 km/h 3 mph /  4.8 km/h 96 % 0 in /  0.0 mm
03:17 34.2 °F /  1.2 °C 33.1 °F /  0.6 °C 30.4 in /  1030.7 hPa South 1 mph /  1.6 km/h 4 mph /  6.4 km/h 96 % 0 in /  0.0 mm
03:32 34.3 °F /  1.3 °C 33.3 °F /  0.7 °C 30.4 in /  1030.7 hPa SW 2 mph /  3.2 km/h 5 mph /  8.0 km/h 96 % 0 in /  0.0 mm
03:37 34.3 °F /  1.3 °C 33.3 °F /  0.7 °C 30.4 in /  1030.7 hPa SW 2 mph /  3.2 km/h 5 mph /  8.0 km/h 96 % 0 in /  0.0 mm
03:42 34.5 °F /  1.4 °C 33.4 °F /  0.8 °C 30.4 in /  1030.7 hPa SW 1 mph /  1.6 km/h 5 mph /  8.0 km/h 96 % 0 in /  0.0 mm
03:47 34.5 °F /  1.4 °C 33.4 °F /  0.8 °C 30.4 in /  1030.4 hPa SSW 1 mph /  1.6 km/h 3 mph /  4.8 km/h 96 % 0 in /  0.0 mm
03:52 34.5 °F /  1.4 °C 33.4 °F /  0.8 °C 30.4 in /  1030.4 hPa SSW 1 mph /  1.6 km/h 3 mph /  4.8 km/h 96 % 0 in /  0.0 mm
03:57 34.5 °F /  1.4 °C 33.4 °F /  0.8 °C 30.4 in /  1030.4 hPa SSW 2 mph /  3.2 km/h 3 mph /  4.8 km/h 96 % 0 in /  0.0 mm
04:02 34.5 °F /  1.4 °C 33.4 °F /  0.8 °C 30.4 in /  1030.4 hPa SW 1 mph /  1.6 km/h 3 mph /  4.8 km/h 96 % 0 in /  0.0 mm
04:07 34.7 °F /  1.5 °C 33.6 °F /  0.9 °C 30.4 in /  1030.4 hPa SSW 1 mph /  1.6 km/h 3 mph /  4.8 km/h 96 % 0 in /  0.0 mm
04:12 34.9 °F /  1.6 °C 34.2 °F /  1.2 °C 30.4 in /  1030.4 hPa WSW 1 mph /  1.6 km/h 3 mph /  4.8 km/h 97 % 0 in /  0.0 mm
04:22 34.9 °F /  1.6 °C 33.8 °F /  1.0 °C 30.4 in /  1030.4 hPa WSW 1 mph /  1.6 km/h 4 mph /  6.4 km/h 96 % 0 in /  0.0 mm
04:32 35.1 °F /  1.7 °C 34 °F /  1.1 °C 30.4 in /  1030.4 hPa Calm   4 mph /  6.4 km/h 96 % 0 in /  0.0 mm
04:37 35.1 °F /  1.7 °C 34 °F /  1.1 °C 30.4 in /  1030.0 hPa SW 2 mph /  3.2 km/h 2 mph /  3.2 km/h 96 % 0 in /  0.0 mm
04:42 34.9 °F /  1.6 °C 33.8 °F /  1.0 °C 30.4 in /  1030.0 hPa Calm   2 mph /  3.2 km/h 96 % 0 in /  0.0 mm
04:47 34.9 °F /  1.6 °C 33.8 °F /  1.0 °C 30.4 in /  1030.0 hPa SE 1 mph /  1.6 km/h 3 mph /  4.8 km/h 96 % 0 in /  0.0 mm
04:52 34.5 °F /  1.4 °C 33.4 °F /  0.8 °C 30.4 in /  1030.0 hPa SSE 1 mph /  1.6 km/h 3 mph /  4.8 km/h 96 % 0 in /  0.0 mm
04:57 34.3 °F /  1.3 °C 33.3 °F /  0.7 °C 30.4 in /  1029.7 hPa SE 1 mph /  1.6 km/h 3 mph /  4.8 km/h 96 % 0 in /  0.0 mm
05:07 34.3 °F /  1.3 °C 33.3 °F /  0.7 °C 30.4 in /  1029.7 hPa Calm   3 mph /  4.8 km/h 96 % 0 in /  0.0 mm
05:12 34.3 °F /  1.3 °C 33.3 °F /  0.7 °C 30.4 in /  1030.0 hPa Calm   3 mph /  4.8 km/h 96 % 0 in /  0.0 mm
05:17 34.3 °F /  1.3 °C 33.3 °F /  0.7 °C 30.4 in /  1029.7 hPa SSW 1 mph /  1.6 km/h 2 mph /  3.2 km/h 96 % 0 in /  0.0 mm
05:22 34.3 °F /  1.3 °C 33.3 °F /  0.7 °C 30.4 in /  1029.7 hPa SSW 1 mph /  1.6 km/h 2 mph /  3.2 km/h 96 % 0 in /  0.0 mm
05:32 34.7 °F /  1.5 °C 34 °F /  1.1 °C 30.4 in /  1029.7 hPa SSW 4 mph /  6.4 km/h 4 mph /  6.4 km/h 97 % 0 in /  0.0 mm
05:52 34.7 °F /  1.5 °C 33.6 °F /  0.9 °C 30.4 in /  1029.3 hPa SW 3 mph /  4.8 km/h 6 mph /  9.7 km/h 96 % 0 in /  0.0 mm
05:57 34.5 °F /  1.4 °C 33.4 °F /  0.8 °C 30.4 in /  1029.3 hPa SSW 2 mph /  3.2 km/h 5 mph /  8.0 km/h 96 % 0 in /  0.0 mm
06:02 34.5 °F /  1.4 °C 33.4 °F /  0.8 °C 30.4 in /  1029.3 hPa SW 3 mph /  4.8 km/h 5 mph /  8.0 km/h 96 % 0 in /  0.0 mm
06:12 34.5 °F /  1.4 °C 33.4 °F /  0.8 °C 30.4 in /  1029.3 hPa SW 3 mph /  4.8 km/h 6 mph /  9.7 km/h 96 % 0 in /  0.0 mm
06:17 34.7 °F /  1.5 °C 33.6 °F /  0.9 °C 30.4 in /  1029.7 hPa WSW 3 mph /  4.8 km/h 6 mph /  9.7 km/h 96 % 0 in /  0.0 mm
06:22 34.7 °F /  1.5 °C 33.6 °F /  0.9 °C 30.4 in /  1029.7 hPa SW 1 mph /  1.6 km/h 6 mph /  9.7 km/h 96 % 0 in /  0.0 mm
06:27 34.7 °F /  1.5 °C 33.6 °F /  0.9 °C 30.4 in /  1029.3 hPa SW 3 mph /  4.8 km/h 6 mph /  9.7 km/h 96 % 0 in /  0.0 mm
06:32 34.7 °F /  1.5 °C 33.6 °F /  0.9 °C 30.4 in /  1029.3 hPa SW 2 mph /  3.2 km/h 6 mph /  9.7 km/h 96 % 0 in /  0.0 mm
06:37 34.9 °F /  1.6 °C 33.8 °F /  1.0 °C 30.4 in /  1029.7 hPa SW 2 mph /  3.2 km/h 5 mph /  8.0 km/h 96 % 0 in /  0.0 mm
06:42 35.1 °F /  1.7 °C 34.3 °F /  1.3 °C 30.4 in /  1029.3 hPa SW 8 mph /  12.9 km/h 8 mph /  12.9 km/h 97 % 0 in /  0.0 mm
06:52 35.4 °F /  1.9 °C 34.7 °F /  1.5 °C 30.4 in /  1029.7 hPa SW 4 mph /  6.4 km/h 8 mph /  12.9 km/h 97 % 0 in /  0.0 mm
07:02 35.4 °F /  1.9 °C 34.3 °F /  1.3 °C 30.4 in /  1029.7 hPa SW 4 mph /  6.4 km/h 8 mph /  12.9 km/h 96 % 0 in /  0.0 mm
07:12 35.4 °F /  1.9 °C 34.3 °F /  1.3 °C 30.4 in /  1029.7 hPa SSW 1 mph /  1.6 km/h 6 mph /  9.7 km/h 96 % 0 in /  0.0 mm
07:22 35.4 °F /  1.9 °C 34.3 °F /  1.3 °C 30.4 in /  1029.7 hPa South 2 mph /  3.2 km/h 5 mph /  8.0 km/h 96 % 0 in /  0.0 mm
07:32 35.6 °F /  2.0 °C 34.5 °F /  1.4 °C 30.4 in /  1029.7 hPa Calm   3 mph /  4.8 km/h 96 % 0 in /  0.0 mm
07:42 35.8 °F /  2.1 °C 34.7 °F /  1.5 °C 30.4 in /  1029.7 hPa Calm   3 mph /  4.8 km/h 96 % 0 in /  0.0 mm
07:52 36 °F /  2.2 °C 34.9 °F /  1.6 °C 30.4 in /  1029.7 hPa Calm   3 mph /  4.8 km/h 96 % 0 in /  0.0 mm
08:02 36.7 °F /  2.6 °C 36 °F /  2.2 °C 30.4 in /  1029.7 hPa SW 4 mph /  6.4 km/h 4 mph /  6.4 km/h 97 % 0 in /  0.0 mm
08:07 36.9 °F /  2.7 °C 35.8 °F /  2.1 °C 30.4 in /  1029.7 hPa SW 1 mph /  1.6 km/h 5 mph /  8.0 km/h 96 % 0 in /  0.0 mm
08:12 37 °F /  2.8 °C 36 °F /  2.2 °C 30.4 in /  1029.7 hPa SW 3 mph /  4.8 km/h 5 mph /  8.0 km/h 96 % 0 in /  0.0 mm
08:17 37.2 °F /  2.9 °C 36.1 °F /  2.3 °C 30.4 in /  1029.7 hPa SW 1 mph /  1.6 km/h 5 mph /  8.0 km/h 96 % 0 in /  0.0 mm
08:22 37.2 °F /  2.9 °C 36 °F /  2.2 °C 30.4 in /  1029.3 hPa WSW 5 mph /  8.0 km/h 5 mph /  8.0 km/h 95 % 0 in /  0.0 mm
08:27 37.4 °F /  3.0 °C 36.1 °F /  2.3 °C 30.4 in /  1029.3 hPa WSW 1 mph /  1.6 km/h 6 mph /  9.7 km/h 95 % 0 in /  0.0 mm
08:32 37.2 °F /  2.9 °C 35.6 °F /  2.0 °C 30.4 in /  1029.3 hPa West 3 mph /  4.8 km/h 6 mph /  9.7 km/h 94 % 0 in /  0.0 mm
08:42 37.2 °F /  2.9 °C 35.6 °F /  2.0 °C 30.4 in /  1029.3 hPa West 3 mph /  4.8 km/h 7 mph /  11.3 km/h 94 % 0 in /  0.0 mm
08:47 37.2 °F /  2.9 °C 35.6 °F /  2.0 °C 30.4 in /  1029.3 hPa WSW 3 mph /  4.8 km/h 8 mph /  12.9 km/h 94 % 0 in /  0.0 mm
08:52 37.2 °F /  2.9 °C 35.6 °F /  2.0 °C 30.4 in /  1029.3 hPa WSW 4 mph /  6.4 km/h 8 mph /  12.9 km/h 94 % 0 in /  0.0 mm
08:57 37.2 °F /  2.9 °C 35.4 °F /  1.9 °C 30.4 in /  1029.3 hPa WSW 5 mph /  8.0 km/h 11 mph /  17.7 km/h 93 % 0 in /  0.0 mm
09:02 37 °F /  2.8 °C 35.2 °F /  1.8 °C 30.4 in /  1029.3 hPa West 4 mph /  6.4 km/h 11 mph /  17.7 km/h 93 % 0 in /  0.0 mm
09:07 37.2 °F /  2.9 °C 35.4 °F /  1.9 °C 30.4 in /  1029.3 hPa WSW 5 mph /  8.0 km/h 11 mph /  17.7 km/h 93 % 0 in /  0.0 mm
09:12 37.2 °F /  2.9 °C 35.4 °F /  1.9 °C 30.4 in /  1029.3 hPa WSW 5 mph /  8.0 km/h 11 mph /  17.7 km/h 93 % 0 in /  0.0 mm
09:17 37.6 °F /  3.1 °C 35.8 °F /  2.1 °C 30.4 in /  1029.3 hPa SW 3 mph /  4.8 km/h 9 mph /  14.5 km/h 93 % 0 in /  0.0 mm
09:22 37.8 °F /  3.2 °C 36 °F /  2.2 °C 30.4 in /  1029.3 hPa WSW 4 mph /  6.4 km/h 9 mph /  14.5 km/h 93 % 0 in /  0.0 mm
09:32 37.9 °F /  3.3 °C 35.8 °F /  2.1 °C 30.4 in /  1029.3 hPa WSW 7 mph /  11.3 km/h 11 mph /  17.7 km/h 92 % 0 in /  0.0 mm
09:42 38.1 °F /  3.4 °C 36 °F /  2.2 °C 30.4 in /  1029.0 hPa SSW 3 mph /  4.8 km/h 11 mph /  17.7 km/h 92 % 0 in /  0.0 mm
09:47 38.5 °F /  3.6 °C 36.3 °F /  2.4 °C 30.4 in /  1029.0 hPa WSW 6 mph /  9.7 km/h 11 mph /  17.7 km/h 92 % 0 in /  0.0 mm
09:52 38.5 °F /  3.6 °C 36.1 °F /  2.3 °C 30.4 in /  1029.3 hPa West 4 mph /  6.4 km/h 11 mph /  17.7 km/h 91 % 0 in /  0.0 mm
10:02 38.8 °F /  3.8 °C 36.5 °F /  2.5 °C 30.4 in /  1029.0 hPa SSW 8 mph /  12.9 km/h 11 mph /  17.7 km/h 91 % 0 in /  0.0 mm
10:07 39 °F /  3.9 °C 36.3 °F /  2.4 °C 30.4 in /  1028.7 hPa SW 7 mph /  11.3 km/h 12 mph /  19.3 km/h 90 % 0 in /  0.0 mm
10:17 39.4 °F /  4.1 °C 36.7 °F /  2.6 °C 30.4 in /  1029.0 hPa SW 6 mph /  9.7 km/h 12 mph /  19.3 km/h 90 % 0 in /  0.0 mm
10:22 39.4 °F /  4.1 °C 36.5 °F /  2.5 °C 30.4 in /  1029.0 hPa WSW 5 mph /  8.0 km/h 12 mph /  19.3 km/h 89 % 0 in /  0.0 mm
10:27 39.4 °F /  4.1 °C 36.7 °F /  2.6 °C 30.4 in /  1028.7 hPa WSW 9 mph /  14.5 km/h 13 mph /  20.9 km/h 90 % 0 in /  0.0 mm
10:32 39.4 °F /  4.1 °C 36.5 °F /  2.5 °C 30.4 in /  1028.7 hPa SW 6 mph /  9.7 km/h 13 mph /  20.9 km/h 89 % 0 in /  0.0 mm
10:42 39.6 °F /  4.2 °C 36.5 °F /  2.5 °C 30.4 in /  1028.7 hPa SW 9 mph /  14.5 km/h 14 mph /  22.5 km/h 89 % 0 in /  0.0 mm
10:47 39.6 °F /  4.2 °C 36.5 °F /  2.5 °C 30.4 in /  1028.7 hPa SW 6 mph /  9.7 km/h 15 mph /  24.1 km/h 89 % 0 in /  0.0 mm
10:52 39.9 °F /  4.4 °C 37.2 °F /  2.9 °C 30.4 in /  1028.7 hPa South 5 mph /  8.0 km/h 15 mph /  24.1 km/h 90 % 0 in /  0.0 mm
11:02 40.5 °F /  4.7 °C 37.4 °F /  3.0 °C 30.4 in /  1028.7 hPa WSW 8 mph /  12.9 km/h 12 mph /  19.3 km/h 89 % 0 in /  0.0 mm
11:12 41.2 °F /  5.1 °C 37.9 °F /  3.3 °C 30.4 in /  1028.7 hPa SW 10 mph /  16.1 km/h 11 mph /  17.7 km/h 88 % 0 in /  0.0 mm
11:17 41.4 °F /  5.2 °C 37.8 °F /  3.2 °C 30.4 in /  1028.7 hPa SW 4 mph /  6.4 km/h 11 mph /  17.7 km/h 87 % 0 in /  0.0 mm
11:22 41.4 °F /  5.2 °C 37.8 °F /  3.2 °C 30.4 in /  1028.7 hPa WSW 7 mph /  11.3 km/h 11 mph /  17.7 km/h 87 % 0 in /  0.0 mm
11:32 41.9 °F /  5.5 °C 37.9 °F /  3.3 °C 30.4 in /  1028.7 hPa South 7 mph /  11.3 km/h 13 mph /  20.9 km/h 86 % 0 in /  0.0 mm
11:42 42.3 °F /  5.7 °C 38.3 °F /  3.5 °C 30.4 in /  1028.3 hPa SW 11 mph /  17.7 km/h 15 mph /  24.1 km/h 86 % 0 in /  0.0 mm
11:52 42.6 °F /  5.9 °C 38.5 °F /  3.6 °C 30.4 in /  1028.0 hPa SW 4 mph /  6.4 km/h 15 mph /  24.1 km/h 85 % 0 in /  0.0 mm
11:57 43 °F /  6.1 °C 38.5 °F /  3.6 °C 30.4 in /  1028.0 hPa SSW 4 mph /  6.4 km/h 15 mph /  24.1 km/h 84 % 0 in /  0.0 mm
12:02 43.3 °F /  6.3 °C 38.8 °F /  3.8 °C 30.4 in /  1028.0 hPa SW 5 mph /  8.0 km/h 15 mph /  24.1 km/h 84 % 0 in /  0.0 mm
12:07 43.5 °F /  6.4 °C 38.7 °F /  3.7 °C 30.4 in /  1028.0 hPa SSW 4 mph /  6.4 km/h 14 mph /  22.5 km/h 83 % 0 in /  0.0 mm
12:12 43.7 °F /  6.5 °C 38.5 °F /  3.6 °C 30.4 in /  1028.0 hPa West 4 mph /  6.4 km/h 14 mph /  22.5 km/h 82 % 0 in /  0.0 mm
12:17 43.9 °F /  6.6 °C 39.4 °F /  4.1 °C 30.4 in /  1027.7 hPa SW 5 mph /  8.0 km/h 12 mph /  19.3 km/h 84 % 0 in /  0.0 mm
12:22 43.9 °F /  6.6 °C 38.7 °F /  3.7 °C 30.4 in /  1027.7 hPa SW 9 mph /  14.5 km/h 12 mph /  19.3 km/h 82 % 0 in /  0.0 mm
12:32 44.1 °F /  6.7 °C 38.8 °F /  3.8 °C 30.4 in /  1027.7 hPa WSW 4 mph /  6.4 km/h 13 mph /  20.9 km/h 82 % 0 in /  0.0 mm
12:37 44.2 °F /  6.8 °C 39 °F /  3.9 °C 30.4 in /  1027.7 hPa WSW 2 mph /  3.2 km/h 13 mph /  20.9 km/h 82 % 0 in /  0.0 mm
12:42 44.2 °F /  6.8 °C 39.4 °F /  4.1 °C 30.4 in /  1027.7 hPa SW 3 mph /  4.8 km/h 13 mph /  20.9 km/h 83 % 0 in /  0.0 mm
12:47 44.4 °F /  6.9 °C 39.6 °F /  4.2 °C 30.4 in /  1027.7 hPa WSW 2 mph /  3.2 km/h 12 mph /  19.3 km/h 83 % 0 in /  0.0 mm
12:52 44.6 °F /  7.0 °C 39.4 °F /  4.1 °C 30.3 in /  1027.3 hPa SW 7 mph /  11.3 km/h 12 mph /  19.3 km/h 82 % 0 in /  0.0 mm
12:57 44.8 °F /  7.1 °C 39.6 °F /  4.2 °C 30.3 in /  1027.3 hPa West 9 mph /  14.5 km/h 14 mph /  22.5 km/h 82 % 0 in /  0.0 mm
13:02 45.1 °F /  7.3 °C 39.9 °F /  4.4 °C 30.3 in /  1027.0 hPa Calm   14 mph /  22.5 km/h 82 % 0 in /  0.0 mm
13:12 45.3 °F /  7.4 °C 39.6 °F /  4.2 °C 30.3 in /  1027.0 hPa SW 11 mph /  17.7 km/h 14 mph /  22.5 km/h 80 % 0 in /  0.0 mm
13:17 45.3 °F /  7.4 °C 39.6 °F /  4.2 °C 30.3 in /  1027.0 hPa WSW 9 mph /  14.5 km/h 15 mph /  24.1 km/h 80 % 0 in /  0.0 mm
13:22 45.3 °F /  7.4 °C 39.9 °F /  4.4 °C 30.3 in /  1026.6 hPa WSW 9 mph /  14.5 km/h 15 mph /  24.1 km/h 81 % 0 in /  0.0 mm
13:27 45.5 °F /  7.5 °C 39.7 °F /  4.3 °C 30.3 in /  1026.6 hPa West 5 mph /  8.0 km/h 15 mph /  24.1 km/h 80 % 0 in /  0.0 mm
13:32 45.7 °F /  7.6 °C 39.9 °F /  4.4 °C 30.3 in /  1026.6 hPa SW 9 mph /  14.5 km/h 15 mph /  24.1 km/h 80 % 0 in /  0.0 mm
13:37 45.7 °F /  7.6 °C 39.9 °F /  4.4 °C 30.3 in /  1026.3 hPa West 10 mph /  16.1 km/h 14 mph /  22.5 km/h 80 % 0 in /  0.0 mm
13:42 45.9 °F /  7.7 °C 39.7 °F /  4.3 °C 30.3 in /  1026.3 hPa SW 9 mph /  14.5 km/h 14 mph /  22.5 km/h 79 % 0 in /  0.0 mm
13:47 46 °F /  7.8 °C 40.3 °F /  4.6 °C 30.3 in /  1026.0 hPa WSW 7 mph /  11.3 km/h 15 mph /  24.1 km/h 80 % 0 in /  0.0 mm
13:52 46.2 °F /  7.9 °C 39.7 °F /  4.3 °C 30.3 in /  1026.0 hPa WSW 11 mph /  17.7 km/h 15 mph /  24.1 km/h 78 % 0 in /  0.0 mm
13:57 46.4 °F /  8.0 °C 40.3 °F /  4.6 °C 30.3 in /  1026.0 hPa SSW 12 mph /  19.3 km/h 15 mph /  24.1 km/h 79 % 0 in /  0.0 mm
14:02 46.6 °F /  8.1 °C 40.1 °F /  4.5 °C 30.3 in /  1025.6 hPa West 7 mph /  11.3 km/h 15 mph /  24.1 km/h 78 % 0 in /  0.0 mm
14:07 46.8 °F /  8.2 °C 39.9 °F /  4.4 °C 30.3 in /  1025.6 hPa SW 8 mph /  12.9 km/h 17 mph /  27.4 km/h 77 % 0 in /  0.0 mm
14:12 46.9 °F /  8.3 °C 40.5 °F /  4.7 °C 30.3 in /  1025.6 hPa SW 7 mph /  11.3 km/h 17 mph /  27.4 km/h 78 % 0 in /  0.0 mm
14:17 47.1 °F /  8.4 °C 40.3 °F /  4.6 °C 30.3 in /  1025.6 hPa WSW 6 mph /  9.7 km/h 17 mph /  27.4 km/h 77 % 0 in /  0.0 mm
14:22 47.1 °F /  8.4 °C 39.9 °F /  4.4 °C 30.3 in /  1025.6 hPa WSW 13 mph /  20.9 km/h 17 mph /  27.4 km/h 76 % 0 in /  0.0 mm
14:32 46.9 °F /  8.3 °C 40.1 °F /  4.5 °C 30.3 in /  1025.6 hPa West 10 mph /  16.1 km/h 14 mph /  22.5 km/h 77 % 0 in /  0.0 mm
14:37 46.9 °F /  8.3 °C 40.1 °F /  4.5 °C 30.3 in /  1025.6 hPa West 8 mph /  12.9 km/h 15 mph /  24.1 km/h 77 % 0 in /  0.0 mm
14:42 46.8 °F /  8.2 °C 39.9 °F /  4.4 °C 30.3 in /  1025.6 hPa WSW 3 mph /  4.8 km/h 15 mph /  24.1 km/h 77 % 0 in /  0.0 mm
14:52 46.8 °F /  8.2 °C 39.9 °F /  4.4 °C 30.3 in /  1025.3 hPa WNW 5 mph /  8.0 km/h 15 mph /  24.1 km/h 77 % 0 in /  0.0 mm
15:02 46.6 °F /  8.1 °C 40.1 °F /  4.5 °C 30.3 in /  1024.9 hPa West 4 mph /  6.4 km/h 17 mph /  27.4 km/h 78 % 0 in /  0.0 mm
15:07 46.6 °F /  8.1 °C 40.1 °F /  4.5 °C 30.3 in /  1024.9 hPa WSW 11 mph /  17.7 km/h 14 mph /  22.5 km/h 78 % 0 in /  0.0 mm
15:12 46.6 °F /  8.1 °C 40.1 °F /  4.5 °C 30.3 in /  1024.9 hPa SW 9 mph /  14.5 km/h 14 mph /  22.5 km/h 78 % 0 in /  0.0 mm
15:22 46.4 °F /  8.0 °C 40.3 °F /  4.6 °C 30.3 in /  1024.9 hPa WSW 8 mph /  12.9 km/h 15 mph /  24.1 km/h 79 % 0 in /  0.0 mm
15:27 46.4 °F /  8.0 °C 40.3 °F /  4.6 °C 30.3 in /  1024.9 hPa SSW 6 mph /  9.7 km/h 14 mph /  22.5 km/h 79 % 0 in /  0.0 mm
15:32 46.4 °F /  8.0 °C 40.3 °F /  4.6 °C 30.3 in /  1024.9 hPa SW 7 mph /  11.3 km/h 14 mph /  22.5 km/h 79 % 0 in /  0.0 mm
15:37 46.4 °F /  8.0 °C 40.3 °F /  4.6 °C 30.3 in /  1024.6 hPa SW 5 mph /  8.0 km/h 14 mph /  22.5 km/h 79 % 0 in /  0.0 mm
15:47 46.2 °F /  7.9 °C 40.6 °F /  4.8 °C 30.3 in /  1024.6 hPa SSW 4 mph /  6.4 km/h 11 mph /  17.7 km/h 81 % 0 in /  0.0 mm
15:52 46.2 °F /  7.9 °C 40.5 °F /  4.7 °C 30.3 in /  1024.6 hPa SW 5 mph /  8.0 km/h 11 mph /  17.7 km/h 80 % 0 in /  0.0 mm
15:57 46.2 °F /  7.9 °C 40.5 °F /  4.7 °C 30.3 in /  1024.6 hPa SW 10 mph /  16.1 km/h 12 mph /  19.3 km/h 80 % 0 in /  0.0 mm
16:02 46.2 °F /  7.9 °C 40.5 °F /  4.7 °C 30.3 in /  1024.6 hPa SW 4 mph /  6.4 km/h 12 mph /  19.3 km/h 80 % 0 in /  0.0 mm
16:12 46 °F /  7.8 °C 40.5 °F /  4.7 °C 30.3 in /  1024.3 hPa SW 4 mph /  6.4 km/h 11 mph /  17.7 km/h 81 % 0 in /  0.0 mm
16:17 46 °F /  7.8 °C 40.3 °F /  4.6 °C 30.3 in /  1024.3 hPa SW 4 mph /  6.4 km/h 10 mph /  16.1 km/h 80 % 0 in /  0.0 mm
16:22 46 °F /  7.8 °C 40.5 °F /  4.7 °C 30.3 in /  1024.3 hPa SW 6 mph /  9.7 km/h 10 mph /  16.1 km/h 81 % 0 in /  0.0 mm
16:27 46 °F /  7.8 °C 40.5 °F /  4.7 °C 30.3 in /  1024.3 hPa SW 7 mph /  11.3 km/h 12 mph /  19.3 km/h 81 % 0 in /  0.0 mm
16:32 45.9 °F /  7.7 °C 40.3 °F /  4.6 °C 30.3 in /  1024.3 hPa WSW 6 mph /  9.7 km/h 12 mph /  19.3 km/h 81 % 0 in /  0.0 mm
16:37 46 °F /  7.8 °C 40.3 °F /  4.6 °C 30.3 in /  1024.3 hPa WSW 6 mph /  9.7 km/h 12 mph /  19.3 km/h 80 % 0 in /  0.0 mm
16:42 46 °F /  7.8 °C 40.3 °F /  4.6 °C 30.3 in /  1024.3 hPa WSW 5 mph /  8.0 km/h 12 mph /  19.3 km/h 80 % 0 in /  0.0 mm
16:47 46 °F /  7.8 °C 40.3 °F /  4.6 °C 30.3 in /  1024.3 hPa SW 7 mph /  11.3 km/h 14 mph /  22.5 km/h 80 % 0 in /  0.0 mm
16:52 45.9 °F /  7.7 °C 40.1 °F /  4.5 °C 30.3 in /  1024.3 hPa WSW 5 mph /  8.0 km/h 14 mph /  22.5 km/h 80 % 0 in /  0.0 mm
16:57 45.9 °F /  7.7 °C 40.1 °F /  4.5 °C 30.3 in /  1024.3 hPa SW 5 mph /  8.0 km/h 14 mph /  22.5 km/h 80 % 0 in /  0.0 mm
17:02 45.9 °F /  7.7 °C 40.1 °F /  4.5 °C 30.2 in /  1023.9 hPa SW 4 mph /  6.4 km/h 14 mph /  22.5 km/h 80 % 0 in /  0.0 mm
17:12 45.9 °F /  7.7 °C 40.1 °F /  4.5 °C 30.2 in /  1023.9 hPa SW 6 mph /  9.7 km/h 12 mph /  19.3 km/h 80 % 0 in /  0.0 mm
17:17 45.7 °F /  7.6 °C 39.9 °F /  4.4 °C 30.2 in /  1023.9 hPa SW 5 mph /  8.0 km/h 11 mph /  17.7 km/h 80 % 0 in /  0.0 mm
17:22 45.7 °F /  7.6 °C 40.1 °F /  4.5 °C 30.2 in /  1023.9 hPa SW 4 mph /  6.4 km/h 11 mph /  17.7 km/h 81 % 0 in /  0.0 mm
17:32 45.1 °F /  7.3 °C 39.9 °F /  4.4 °C 30.2 in /  1023.6 hPa SW 5 mph /  8.0 km/h 9 mph /  14.5 km/h 82 % 0 in /  0.0 mm
17:37 45.1 °F /  7.3 °C 40.3 °F /  4.6 °C 30.2 in /  1023.2 hPa SSW 4 mph /  6.4 km/h 9 mph /  14.5 km/h 83 % 0 in /  0.0 mm
17:42 45 °F /  7.2 °C 39.7 °F /  4.3 °C 30.2 in /  1023.2 hPa SSW 5 mph /  8.0 km/h 9 mph /  14.5 km/h 82 % 0 in /  0.0 mm
17:52 44.6 °F /  7.0 °C 40.1 °F /  4.5 °C 30.2 in /  1023.2 hPa SSW 5 mph /  8.0 km/h 11 mph /  17.7 km/h 84 % 0 in /  0.0 mm
17:57 44.4 °F /  6.9 °C 39.9 °F /  4.4 °C 30.2 in /  1023.2 hPa SW 4 mph /  6.4 km/h 11 mph /  17.7 km/h 84 % 0 in /  0.0 mm
18:02 44.2 °F /  6.8 °C 40.1 °F /  4.5 °C 30.2 in /  1023.2 hPa SSW 4 mph /  6.4 km/h 11 mph /  17.7 km/h 85 % 0 in /  0.0 mm
18:07 44.2 °F /  6.8 °C 39.7 °F /  4.3 °C 30.2 in /  1023.2 hPa SW 4 mph /  6.4 km/h 9 mph /  14.5 km/h 84 % 0 in /  0.0 mm
18:12 44.2 °F /  6.8 °C 39.7 °F /  4.3 °C 30.2 in /  1022.9 hPa SSW 3 mph /  4.8 km/h 9 mph /  14.5 km/h 84 % 0 in /  0.0 mm
18:17 44.4 °F /  6.9 °C 39.6 °F /  4.2 °C 30.2 in /  1022.9 hPa SW 5 mph /  8.0 km/h 11 mph /  17.7 km/h 83 % 0 in /  0.0 mm
18:27 44.4 °F /  6.9 °C 39.6 °F /  4.2 °C 30.2 in /  1022.9 hPa SW 12 mph /  19.3 km/h 12 mph /  19.3 km/h 83 % 0 in /  0.0 mm
18:32 44.4 °F /  6.9 °C 39.6 °F /  4.2 °C 30.2 in /  1022.9 hPa SW 9 mph /  14.5 km/h 12 mph /  19.3 km/h 83 % 0 in /  0.0 mm
18:37 44.4 °F /  6.9 °C 39.2 °F /  4.0 °C 30.2 in /  1022.6 hPa SSW 4 mph /  6.4 km/h 12 mph /  19.3 km/h 82 % 0 in /  0.0 mm
18:42 44.4 °F /  6.9 °C 39.2 °F /  4.0 °C 30.2 in /  1022.6 hPa SW 5 mph /  8.0 km/h 12 mph /  19.3 km/h 82 % 0 in /  0.0 mm
18:47 44.4 °F /  6.9 °C 39.6 °F /  4.2 °C 30.2 in /  1022.6 hPa SW 4 mph /  6.4 km/h 12 mph /  19.3 km/h 83 % 0 in /  0.0 mm
18:52 44.2 °F /  6.8 °C 39.7 °F /  4.3 °C 30.2 in /  1022.6 hPa SW 8 mph /  12.9 km/h 12 mph /  19.3 km/h 84 % 0 in /  0.0 mm
19:02 44.2 °F /  6.8 °C 39.4 °F /  4.1 °C 30.2 in /  1022.6 hPa SSW 4 mph /  6.4 km/h 12 mph /  19.3 km/h 83 % 0 in /  0.0 mm
19:12 44.4 °F /  6.9 °C 39.6 °F /  4.2 °C 30.2 in /  1022.2 hPa SSW 3 mph /  4.8 km/h 11 mph /  17.7 km/h 83 % 0 in /  0.0 mm
19:22 44.4 °F /  6.9 °C 39.2 °F /  4.0 °C 30.2 in /  1022.2 hPa SSW 7 mph /  11.3 km/h 9 mph /  14.5 km/h 82 % 0 in /  0.0 mm
19:27 44.4 °F /  6.9 °C 39.2 °F /  4.0 °C 30.2 in /  1022.2 hPa SSW 7 mph /  11.3 km/h 12 mph /  19.3 km/h 82 % 0 in /  0.0 mm
19:32 44.2 °F /  6.8 °C 39.4 °F /  4.1 °C 30.2 in /  1022.2 hPa South 7 mph /  11.3 km/h 12 mph /  19.3 km/h 83 % 0 in /  0.0 mm
19:37 44.1 °F /  6.7 °C 39.2 °F /  4.0 °C 30.2 in /  1022.2 hPa SSW 6 mph /  9.7 km/h 11 mph /  17.7 km/h 83 % 0 in /  0.0 mm
19:47 44.1 °F /  6.7 °C 39.2 °F /  4.0 °C 30.2 in /  1021.9 hPa SW 8 mph /  12.9 km/h 12 mph /  19.3 km/h 83 % 0 in /  0.0 mm
19:52 44.1 °F /  6.7 °C 39.2 °F /  4.0 °C 30.2 in /  1021.9 hPa SSW 6 mph /  9.7 km/h 12 mph /  19.3 km/h 83 % 0 in /  0.0 mm
19:57 44.1 °F /  6.7 °C 39.2 °F /  4.0 °C 30.2 in /  1021.9 hPa SSW 6 mph /  9.7 km/h 13 mph /  20.9 km/h 83 % 0 in /  0.0 mm
20:02 44.1 °F /  6.7 °C 39.2 °F /  4.0 °C 30.2 in /  1021.9 hPa South 5 mph /  8.0 km/h 13 mph /  20.9 km/h 83 % 0 in /  0.0 mm
20:07 43.9 °F /  6.6 °C 39.4 °F /  4.1 °C 30.2 in /  1021.6 hPa SW 5 mph /  8.0 km/h 12 mph /  19.3 km/h 84 % 0 in /  0.0 mm
20:12 43.9 °F /  6.6 °C 39.4 °F /  4.1 °C 30.2 in /  1021.6 hPa South 4 mph /  6.4 km/h 12 mph /  19.3 km/h 84 % 0 in /  0.0 mm
20:22 43.7 °F /  6.5 °C 39.2 °F /  4.0 °C 30.2 in /  1021.6 hPa SSW 5 mph /  8.0 km/h 12 mph /  19.3 km/h 84 % 0 in /  0.0 mm
20:32 43.9 °F /  6.6 °C 39.4 °F /  4.1 °C 30.2 in /  1021.6 hPa SW 9 mph /  14.5 km/h 12 mph /  19.3 km/h 84 % 0 in /  0.0 mm
20:37 44.1 °F /  6.7 °C 39.2 °F /  4.0 °C 30.2 in /  1021.2 hPa SW 7 mph /  11.3 km/h 11 mph /  17.7 km/h 83 % 0 in /  0.0 mm
20:42 44.2 °F /  6.8 °C 39.4 °F /  4.1 °C 30.2 in /  1021.2 hPa SW 6 mph /  9.7 km/h 11 mph /  17.7 km/h 83 % 0 in /  0.0 mm
20:47 44.1 °F /  6.7 °C 39.2 °F /  4.0 °C 30.2 in /  1021.2 hPa SW 6 mph /  9.7 km/h 14 mph /  22.5 km/h 83 % 0 in /  0.0 mm
20:57 44.1 °F /  6.7 °C 39.2 °F /  4.0 °C 30.2 in /  1020.9 hPa SW 9 mph /  14.5 km/h 14 mph /  22.5 km/h 83 % 0 in /  0.0 mm
21:02 44.1 °F /  6.7 °C 39.2 °F /  4.0 °C 30.2 in /  1020.9 hPa SSW 4 mph /  6.4 km/h 14 mph /  22.5 km/h 83 % 0 in /  0.0 mm
21:12 44.2 °F /  6.8 °C 39.4 °F /  4.1 °C 30.2 in /  1020.9 hPa SW 5 mph /  8.0 km/h 12 mph /  19.3 km/h 83 % 0 in /  0.0 mm
21:17 44.2 °F /  6.8 °C 39 °F /  3.9 °C 30.2 in /  1020.9 hPa SW 8 mph /  12.9 km/h 12 mph /  19.3 km/h 82 % 0 in /  0.0 mm
21:27 44.2 °F /  6.8 °C 39 °F /  3.9 °C 30.1 in /  1020.5 hPa SW 7 mph /  11.3 km/h 13 mph /  20.9 km/h 82 % 0 in /  0.0 mm
21:32 44.4 °F /  6.9 °C 39.2 °F /  4.0 °C 30.1 in /  1020.5 hPa SW 8 mph /  12.9 km/h 13 mph /  20.9 km/h 82 % 0 in /  0.0 mm
21:37 44.2 °F /  6.8 °C 39 °F /  3.9 °C 30.1 in /  1020.5 hPa SW 6 mph /  9.7 km/h 15 mph /  24.1 km/h 82 % 0 in /  0.0 mm
21:47 44.4 °F /  6.9 °C 39.2 °F /  4.0 °C 30.1 in /  1020.5 hPa West 6 mph /  9.7 km/h 17 mph /  27.4 km/h 82 % 0 in /  0.0 mm
21:52 44.4 °F /  6.9 °C 39.2 °F /  4.0 °C 30.1 in /  1020.2 hPa SW 11 mph /  17.7 km/h 17 mph /  27.4 km/h 82 % 0 in /  0.0 mm
22:02 44.4 °F /  6.9 °C 39.2 °F /  4.0 °C 30.1 in /  1020.2 hPa SW 6 mph /  9.7 km/h 17 mph /  27.4 km/h 82 % 0 in /  0.0 mm
22:12 44.2 °F /  6.8 °C 39.4 °F /  4.1 °C 30.1 in /  1019.9 hPa SW 9 mph /  14.5 km/h 16 mph /  25.7 km/h 83 % 0 in /  0.0 mm
22:17 44.2 °F /  6.8 °C 39 °F /  3.9 °C 30.1 in /  1019.9 hPa WSW 5 mph /  8.0 km/h 14 mph /  22.5 km/h 82 % 0 in /  0.0 mm
22:22 44.1 °F /  6.7 °C 39.2 °F /  4.0 °C 30.1 in /  1019.9 hPa SW 8 mph /  12.9 km/h 14 mph /  22.5 km/h 83 % 0 in /  0.0 mm
22:32 44.1 °F /  6.7 °C 39.2 °F /  4.0 °C 30.1 in /  1019.5 hPa SW 7 mph /  11.3 km/h 14 mph /  22.5 km/h 83 % 0 in /  0.0 mm
22:37 44.1 °F /  6.7 °C 39.2 °F /  4.0 °C 30.1 in /  1019.5 hPa West 7 mph /  11.3 km/h 15 mph /  24.1 km/h 83 % 0 in /  0.0 mm
22:42 43.9 °F /  6.6 °C 39 °F /  3.9 °C 30.1 in /  1019.5 hPa South 5 mph /  8.0 km/h 15 mph /  24.1 km/h 83 % 0 in /  0.0 mm
22:47 43.9 °F /  6.6 °C 39 °F /  3.9 °C 30.1 in /  1019.5 hPa SW 7 mph /  11.3 km/h 14 mph /  22.5 km/h 83 % 0 in /  0.0 mm
22:52 43.9 °F /  6.6 °C 39 °F /  3.9 °C 30.1 in /  1019.5 hPa WSW 6 mph /  9.7 km/h 14 mph /  22.5 km/h 83 % 0 in /  0.0 mm
22:57 43.9 °F /  6.6 °C 39 °F /  3.9 °C 30.1 in /  1019.2 hPa South 6 mph /  9.7 km/h 13 mph /  20.9 km/h 83 % 0 in /  0.0 mm
23:02 43.9 °F /  6.6 °C 39 °F /  3.9 °C 30.1 in /  1019.2 hPa SW 8 mph /  12.9 km/h 13 mph /  20.9 km/h 83 % 0 in /  0.0 mm
23:12 44.1 °F /  6.7 °C 39.2 °F /  4.0 °C 30.1 in /  1018.8 hPa SSW 8 mph /  12.9 km/h 14 mph /  22.5 km/h 83 % 0 in /  0.0 mm
23:17 44.1 °F /  6.7 °C 39.2 °F /  4.0 °C 30.1 in /  1018.8 hPa SW 5 mph /  8.0 km/h 15 mph /  24.1 km/h 83 % 0 in /  0.0 mm
23:22 44.1 °F /  6.7 °C 39.2 °F /  4.0 °C 30.1 in /  1018.8 hPa WSW 9 mph /  14.5 km/h 15 mph /  24.1 km/h 83 % 0 in /  0.0 mm
23:27 44.1 °F /  6.7 °C 38.8 °F /  3.8 °C 30.1 in /  1018.5 hPa SSW 9 mph /  14.5 km/h 17 mph /  27.4 km/h 82 % 0 in /  0.0 mm
23:32 44.1 °F /  6.7 °C 38.8 °F /  3.8 °C 30.1 in /  1018.5 hPa SW 11 mph /  17.7 km/h 17 mph /  27.4 km/h 82 % 0 in /  0.0 mm
23:37 44.1 °F /  6.7 °C 38.8 °F /  3.8 °C 30.1 in /  1018.5 hPa WSW 8 mph /  12.9 km/h 16 mph /  25.7 km/h 82 % 0 in /  0.0 mm
23:42 44.1 °F /  6.7 °C 38.8 °F /  3.8 °C 30.1 in /  1018.5 hPa SW 12 mph /  19.3 km/h 16 mph /  25.7 km/h 82 % 0 in /  0.0 mm
23:47 44.1 °F /  6.7 °C 38.8 °F /  3.8 °C 30.1 in /  1018.5 hPa SW 10 mph /  16.1 km/h 16 mph /  25.7 km/h 82 % 0 in /  0.0 mm
23:52 43.9 °F /  6.6 °C 38.7 °F /  3.7 °C 30.1 in /  1018.5 hPa SW 11 mph /  17.7 km/h 16 mph /  25.7 km/h 82 % 0 in /  0.0 mm
23:57 43.9 °F /  6.6 °C 38.7 °F /  3.7 °C 30.1 in /  1018.2 hPa SSW 6 mph /  9.7 km/h 16 mph /  25.7 km/h 82 % 0 in /  0.0 mm
Meteo18
Compliments of Weather Underground - 4 mb

Script developed by  Jim McMurry - jmcmurry@mwt.net Adapted for the template by  Wim van der Kuil - Leuven-Template.eu

You find our weather info also at:

European Weather Network

Weather Underground

Equipment we use:

Weather-station
Davis Vue

Weather-program
Meteohub

Weather-server
Raspberry PI 2 B+

Provider
1 and 1

Davis Vue

Meteohub

Raspberry PI 2 B+

1 and 1